createdAt,value
2023-05-22T00:01:14.833Z,15.90
2023-05-22T00:03:46.901Z,15.90
2023-05-22T00:06:18.748Z,15.90
2023-05-22T00:08:50.630Z,15.80
2023-05-22T00:11:22.868Z,15.80
2023-05-22T00:13:54.614Z,15.70
2023-05-22T00:16:26.437Z,15.60
2023-05-22T00:18:58.400Z,15.60
2023-05-22T00:21:34.677Z,15.60
2023-05-22T00:24:06.838Z,15.60
2023-05-22T00:26:38.628Z,15.50
2023-05-22T00:29:10.818Z,15.50
2023-05-22T00:31:42.729Z,15.40
2023-05-22T00:34:14.805Z,15.40
2023-05-22T00:36:46.596Z,15.30
2023-05-22T00:39:18.438Z,15.40
2023-05-22T00:41:50.926Z,15.30
2023-05-22T00:44:23.712Z,15.30
2023-05-22T00:46:57.064Z,15.30
2023-05-22T00:49:28.996Z,15.30
2023-05-22T00:52:01.436Z,15.30
2023-05-22T00:54:33.437Z,15.40
2023-05-22T00:57:05.817Z,15.40
2023-05-22T00:59:38.306Z,15.50
2023-05-22T01:02:10.169Z,15.50
2023-05-22T01:04:50.892Z,15.50
2023-05-22T01:07:23.854Z,15.50
2023-05-22T01:09:56.204Z,15.50
2023-05-22T01:12:42.824Z,15.50
2023-05-22T01:15:29.502Z,15.40
2023-05-22T01:18:19.475Z,15.40
2023-05-22T01:21:06.287Z,15.30
2023-05-22T01:24:12.131Z,15.30
2023-05-22T01:27:25.969Z,15.30
2023-05-22T01:30:17.371Z,15.20
2023-05-22T01:32:52.119Z,15.10
2023-05-22T01:35:25.254Z,15.10
2023-05-22T01:37:58.306Z,15.00
2023-05-22T01:40:31.805Z,14.90
2023-05-22T01:43:03.767Z,14.90
2023-05-22T01:45:35.810Z,14.70
2023-05-22T01:48:07.883Z,14.60
2023-05-22T01:50:40.938Z,14.70
2023-05-22T01:53:32.795Z,14.70
2023-05-22T01:56:30.567Z,14.70
2023-05-22T01:59:31.842Z,14.70
2023-05-22T02:02:07.345Z,14.70
2023-05-22T02:04:42.914Z,14.70
2023-05-22T02:07:17.198Z,14.80
2023-05-22T02:09:51.539Z,14.70
2023-05-22T02:12:24.704Z,14.70
2023-05-22T02:14:57.014Z,14.70
2023-05-22T02:17:28.885Z,14.70
2023-05-22T02:20:00.784Z,14.70
2023-05-22T02:22:32.569Z,14.60
2023-05-22T02:25:07.035Z,14.50
2023-05-22T02:27:38.924Z,14.40
2023-05-22T02:30:11.793Z,14.40
2023-05-22T02:32:45.214Z,14.40
2023-05-22T02:35:17.093Z,14.40
2023-05-22T02:37:50.042Z,14.40
2023-05-22T02:40:21.892Z,14.40
2023-05-22T02:42:54.824Z,14.40
2023-05-22T02:45:26.819Z,14.40
2023-05-22T02:48:01.435Z,14.40
2023-05-22T02:50:33.254Z,14.30
2023-05-22T02:53:05.183Z,14.20
2023-05-22T02:55:37.055Z,14.10
2023-05-22T02:58:12.727Z,14.10
2023-05-22T03:00:45.201Z,14.10
2023-05-22T03:03:17.998Z,14.10
2023-05-22T03:05:50.463Z,14.10
2023-05-22T03:08:22.220Z,14.00
2023-05-22T03:10:54.325Z,14.00
2023-05-22T03:13:26.132Z,13.90
2023-05-22T03:15:59.671Z,13.90
2023-05-22T03:18:31.761Z,13.90
2023-05-22T03:21:03.667Z,13.80
2023-05-22T03:23:35.505Z,13.90
2023-05-22T03:26:07.313Z,13.80
2023-05-22T03:28:42.108Z,13.80
2023-05-22T03:31:13.889Z,13.80
2023-05-22T03:34:01.376Z,13.80
2023-05-22T03:36:36.515Z,13.80
2023-05-22T03:39:08.353Z,13.80
2023-05-22T03:41:45.102Z,13.80
2023-05-22T03:44:18.197Z,13.90
2023-05-22T03:46:50.088Z,13.90
2023-05-22T03:49:21.864Z,13.90
2023-05-22T03:51:53.654Z,13.90
2023-05-22T03:54:26.421Z,13.90
2023-05-22T03:56:58.175Z,13.90
2023-05-22T03:59:29.921Z,13.90
2023-05-22T04:02:01.774Z,14.00
2023-05-22T04:04:38.504Z,14.00
2023-05-22T04:07:13.098Z,14.10
2023-05-22T04:09:44.866Z,14.30
2023-05-22T04:12:16.658Z,14.20
2023-05-22T04:14:48.421Z,14.20
2023-05-22T04:17:20.172Z,14.20
2023-05-22T04:19:51.932Z,14.10
2023-05-22T04:22:23.872Z,14.20
2023-05-22T04:24:56.158Z,14.30
2023-05-22T04:27:30.014Z,14.40
2023-05-22T04:30:02.900Z,15.00
2023-05-22T04:32:36.405Z,16.20
2023-05-22T04:35:10.056Z,17.40
2023-05-22T04:37:42.264Z,18.50
2023-05-22T04:40:15.311Z,19.60
2023-05-22T04:42:47.079Z,20.20
2023-05-22T04:45:19.490Z,20.20
2023-05-22T04:47:55.160Z,20.10
2023-05-22T04:50:27.001Z,20.10
2023-05-22T04:52:59.921Z,19.80
2023-05-22T04:55:35.241Z,19.70
2023-05-22T04:58:07.036Z,19.80
2023-05-22T05:00:39.034Z,20.30
2023-05-22T05:03:12.074Z,20.90
2023-05-22T05:05:44.876Z,21.70
2023-05-22T05:08:16.916Z,22.40
2023-05-22T05:10:48.829Z,22.80
2023-05-22T05:13:20.644Z,23.20
2023-05-22T05:15:54.652Z,23.60
2023-05-22T05:18:28.190Z,23.80
2023-05-22T05:21:00.179Z,23.90
2023-05-22T05:23:32.110Z,23.80
2023-05-22T05:26:04.049Z,23.60
2023-05-22T05:28:36.815Z,23.30
2023-05-22T05:31:10.604Z,23.10
2023-05-22T05:34:01.122Z,23.00
2023-05-22T05:36:38.102Z,23.10
2023-05-22T05:39:09.957Z,23.20
2023-05-22T05:41:41.899Z,23.00
2023-05-22T05:44:15.674Z,22.90
2023-05-22T05:46:47.616Z,22.90
2023-05-22T05:49:22.497Z,23.10
2023-05-22T05:51:54.334Z,23.40
2023-05-22T05:54:27.510Z,23.20
2023-05-22T05:57:03.113Z,23.10
2023-05-22T05:59:34.898Z,23.20
2023-05-22T06:02:26.302Z,23.30
2023-05-22T06:05:02.960Z,23.80
2023-05-22T06:07:39.763Z,23.90
2023-05-22T06:10:13.575Z,24.20
2023-05-22T06:12:55.635Z,24.40
2023-05-22T06:15:27.431Z,24.30
2023-05-22T06:17:59.523Z,24.30
2023-05-22T06:20:31.522Z,24.40
2023-05-22T06:23:03.361Z,24.40
2023-05-22T06:25:35.273Z,24.50
2023-05-22T06:28:09.079Z,24.60
2023-05-22T06:30:41.166Z,24.70
2023-05-22T06:33:17.716Z,24.80
2023-05-22T06:35:50.680Z,25.00
2023-05-22T06:38:22.621Z,25.20
2023-05-22T06:40:54.595Z,25.00
2023-05-22T06:43:29.362Z,24.90
2023-05-22T06:46:16.210Z,25.00
2023-05-22T06:48:56.687Z,25.10
2023-05-22T06:51:30.420Z,25.00
2023-05-22T06:54:09.538Z,25.00
2023-05-22T06:56:42.417Z,25.00
2023-05-22T06:59:20.750Z,25.00
2023-05-22T07:02:21.326Z,25.00
2023-05-22T07:05:22.474Z,24.90
2023-05-22T07:08:01.418Z,25.00
2023-05-22T07:10:34.008Z,24.80
2023-05-22T07:13:05.816Z,24.80
2023-05-22T07:15:38.301Z,24.70
2023-05-22T07:18:12.495Z,24.70
2023-05-22T07:20:46.224Z,24.80
2023-05-22T07:23:24.995Z,24.80
2023-05-22T07:25:58.151Z,24.60
2023-05-22T07:28:35.812Z,24.50
2023-05-22T07:31:14.849Z,24.70
2023-05-22T07:33:47.016Z,24.80
2023-05-22T07:36:20.940Z,25.00
2023-05-22T07:38:52.700Z,25.00
2023-05-22T07:41:27.189Z,24.90
2023-05-22T07:43:59.041Z,24.90
2023-05-22T07:46:37.661Z,25.00
2023-05-22T07:49:19.578Z,25.00
2023-05-22T07:51:52.211Z,25.00
2023-05-22T07:54:25.751Z,24.70
2023-05-22T07:56:57.677Z,24.90
2023-05-22T07:59:33.652Z,25.00
2023-05-22T08:02:05.860Z,25.00
2023-05-22T08:04:37.765Z,25.00
2023-05-22T08:07:09.824Z,25.10
2023-05-22T08:09:41.851Z,25.00
2023-05-22T08:12:13.629Z,25.00
2023-05-22T08:14:45.974Z,25.30
2023-05-22T08:17:17.936Z,25.40
2023-05-22T08:19:49.825Z,25.40
2023-05-22T08:22:21.704Z,25.30
2023-05-22T08:24:53.478Z,25.50
2023-05-22T08:27:25.237Z,25.60
2023-05-22T08:29:57.003Z,25.90
2023-05-22T08:32:30.513Z,26.00
2023-05-22T08:35:03.133Z,25.80
2023-05-22T08:37:34.925Z,25.20
2023-05-22T08:40:11.244Z,25.40
2023-05-22T08:42:43.082Z,24.60
2023-05-22T08:45:16.230Z,25.70
2023-05-22T08:47:55.100Z,25.90
2023-05-22T08:50:27.292Z,26.10
2023-05-22T08:53:04.377Z,26.20
2023-05-22T08:55:36.884Z,26.40
2023-05-22T08:58:10.355Z,26.50
2023-05-22T09:00:42.637Z,26.50
2023-05-22T09:03:15.731Z,26.30
2023-05-22T09:05:47.668Z,26.50
2023-05-22T09:08:21.005Z,26.50
2023-05-22T09:10:55.049Z,26.60
2023-05-22T09:13:29.151Z,26.70
2023-05-22T09:16:09.805Z,26.90
2023-05-22T09:18:42.647Z,26.90
2023-05-22T09:21:28.865Z,26.90
2023-05-22T09:24:02.266Z,26.70
2023-05-22T09:26:34.581Z,26.70
2023-05-22T09:29:10.014Z,26.90
2023-05-22T09:31:43.144Z,27.10
2023-05-22T09:34:16.005Z,27.20
2023-05-22T09:36:49.891Z,27.20
2023-05-22T09:39:22.806Z,27.30
2023-05-22T09:42:01.064Z,27.40
2023-05-22T09:44:33.159Z,27.60
2023-05-22T09:47:07.412Z,27.80
2023-05-22T09:49:43.820Z,27.90
2023-05-22T09:52:17.964Z,28.00
2023-05-22T09:54:55.853Z,27.80
2023-05-22T09:57:30.331Z,27.80
2023-05-22T10:00:05.419Z,27.80
2023-05-22T10:02:46.706Z,27.80
2023-05-22T10:05:22.149Z,27.60
2023-05-22T10:07:57.054Z,27.70
2023-05-22T10:10:28.919Z,27.90
2023-05-22T10:13:01.658Z,28.00
2023-05-22T10:15:34.409Z,28.00
2023-05-22T10:18:06.936Z,27.90
2023-05-22T10:20:39.759Z,27.80
2023-05-22T10:23:13.893Z,27.70
2023-05-22T10:25:46.468Z,27.80
2023-05-22T10:28:27.000Z,27.70
2023-05-22T10:31:03.411Z,27.80
2023-05-22T10:34:06.109Z,27.90
2023-05-22T10:36:56.137Z,27.90
2023-05-22T10:39:51.430Z,27.90
2023-05-22T10:42:23.229Z,27.80
2023-05-22T10:44:55.044Z,27.60
2023-05-22T10:47:26.985Z,27.60
2023-05-22T10:50:10.079Z,27.80
2023-05-22T10:52:41.971Z,27.80
2023-05-22T10:55:13.975Z,27.80
2023-05-22T10:57:45.751Z,27.80
2023-05-22T11:00:19.309Z,27.70
2023-05-22T11:03:17.328Z,27.80
2023-05-22T11:05:54.332Z,27.90
2023-05-22T11:08:26.151Z,27.90
2023-05-22T11:11:01.426Z,27.90
2023-05-22T11:13:34.418Z,28.10
2023-05-22T11:16:06.348Z,28.00
2023-05-22T11:18:38.312Z,28.10
2023-05-22T11:21:11.438Z,28.20
2023-05-22T11:23:43.241Z,28.20
2023-05-22T11:26:19.967Z,28.20
2023-05-22T11:28:53.234Z,28.30
2023-05-22T11:31:26.384Z,28.30
2023-05-22T11:33:58.582Z,28.20
2023-05-22T11:36:31.684Z,28.00
2023-05-22T11:39:03.514Z,28.10
2023-05-22T11:41:35.819Z,27.90
2023-05-22T11:44:08.881Z,28.00
2023-05-22T11:46:41.419Z,28.10
2023-05-22T11:49:13.371Z,28.10
2023-05-22T11:51:45.198Z,28.10
2023-05-22T11:54:20.192Z,28.20
2023-05-22T11:56:51.935Z,28.30
2023-05-22T11:59:23.744Z,28.30
2023-05-22T12:01:55.499Z,28.30
2023-05-22T12:04:27.458Z,28.30
2023-05-22T12:06:59.544Z,28.20
2023-05-22T12:09:31.487Z,28.20
2023-05-22T12:12:03.399Z,28.30
2023-05-22T12:14:35.327Z,28.40
2023-05-22T12:17:07.711Z,28.40
2023-05-22T12:19:49.142Z,28.30
2023-05-22T12:22:23.431Z,28.40
2023-05-22T12:24:55.650Z,28.50
2023-05-22T12:27:33.190Z,28.60
2023-05-22T12:30:13.477Z,28.70
2023-05-22T12:32:51.507Z,28.80
2023-05-22T12:35:23.476Z,28.70
2023-05-22T12:37:55.235Z,28.60
2023-05-22T12:40:27.012Z,28.40
2023-05-22T12:42:58.804Z,28.40
2023-05-22T12:45:30.995Z,28.40
2023-05-22T12:48:03.282Z,28.50
2023-05-22T12:50:38.141Z,28.50
2023-05-22T12:53:10.075Z,28.60
2023-05-22T12:55:42.879Z,28.60
2023-05-22T12:58:14.672Z,28.70
2023-05-22T13:00:46.429Z,28.70
2023-05-22T13:03:18.450Z,28.70
2023-05-22T13:05:50.364Z,28.80
2023-05-22T13:08:23.550Z,28.90
2023-05-22T13:10:55.332Z,28.90
2023-05-22T13:13:27.172Z,28.90
2023-05-22T13:15:58.983Z,29.00
2023-05-22T13:18:31.158Z,29.10
2023-05-22T13:21:02.946Z,29.00
2023-05-22T13:23:34.705Z,28.80
2023-05-22T13:26:06.505Z,28.80
2023-05-22T13:28:38.246Z,28.80
2023-05-22T13:31:10.005Z,28.90
2023-05-22T13:33:41.874Z,29.10
2023-05-22T13:36:13.797Z,29.40
2023-05-22T13:38:45.713Z,29.50
2023-05-22T13:41:17.751Z,29.50
2023-05-22T13:43:49.673Z,29.50
2023-05-22T13:46:22.114Z,29.50
2023-05-22T13:48:54.031Z,29.60
2023-05-22T13:51:26.141Z,29.70
2023-05-22T13:53:57.920Z,29.80
2023-05-22T13:56:30.005Z,29.10
2023-05-22T13:59:02.026Z,29.80
2023-05-22T14:01:34.028Z,29.80
2023-05-22T14:04:05.956Z,29.70
2023-05-22T14:06:37.838Z,29.60
2023-05-22T14:09:09.615Z,29.70
2023-05-22T14:11:41.437Z,29.70
2023-05-22T14:14:13.302Z,29.70
2023-05-22T14:16:45.174Z,29.50
2023-05-22T14:19:17.685Z,29.40
2023-05-22T14:21:51.643Z,29.40
2023-05-22T14:24:23.470Z,29.50
2023-05-22T14:26:57.957Z,29.40
2023-05-22T14:29:31.229Z,29.60
2023-05-22T14:32:04.456Z,29.60
2023-05-22T14:34:36.349Z,29.60
2023-05-22T14:37:08.120Z,29.80
2023-05-22T14:39:39.881Z,29.90
2023-05-22T14:42:11.629Z,29.70
2023-05-22T14:44:43.412Z,29.80
2023-05-22T14:47:15.179Z,29.80
2023-05-22T14:49:46.969Z,29.80
2023-05-22T14:52:18.775Z,29.60
2023-05-22T14:54:50.822Z,29.50
2023-05-22T14:57:22.627Z,29.50
2023-05-22T14:59:54.378Z,29.50
2023-05-22T15:02:26.144Z,29.50
2023-05-22T15:04:58.019Z,29.60
2023-05-22T15:07:43.255Z,29.70
2023-05-22T15:10:16.212Z,29.70
2023-05-22T15:12:47.993Z,29.60
2023-05-22T15:15:20.139Z,29.50
2023-05-22T15:17:51.922Z,29.60
2023-05-22T15:20:23.736Z,29.80
2023-05-22T15:22:55.537Z,30.00
2023-05-22T15:25:27.537Z,29.80
2023-05-22T15:28:02.350Z,29.80
2023-05-22T15:30:38.907Z,29.80
2023-05-22T15:33:11.689Z,29.80
2023-05-22T15:35:46.596Z,29.90
2023-05-22T15:38:18.580Z,29.80
2023-05-22T15:40:50.341Z,29.80
2023-05-22T15:43:23.778Z,29.80
2023-05-22T15:45:56.674Z,29.80
2023-05-22T15:48:28.808Z,29.80
2023-05-22T15:51:00.885Z,29.80
2023-05-22T15:53:32.633Z,29.80
2023-05-22T15:56:05.154Z,29.70
2023-05-22T15:58:36.889Z,29.70
2023-05-22T16:01:08.654Z,29.70
2023-05-22T16:03:40.787Z,29.60
2023-05-22T16:06:12.667Z,29.50
2023-05-22T16:08:44.432Z,29.50
2023-05-22T16:11:16.234Z,29.60
2023-05-22T16:13:48.133Z,29.60
2023-05-22T16:16:20.140Z,29.60
2023-05-22T16:18:52.072Z,29.60
2023-05-22T16:21:23.858Z,29.50
2023-05-22T16:23:55.635Z,29.50
2023-05-22T16:26:27.495Z,29.40
2023-05-22T16:28:59.242Z,29.30
2023-05-22T16:31:35.267Z,29.20
2023-05-22T16:34:07.129Z,29.00
2023-05-22T16:36:39.023Z,29.00
2023-05-22T16:39:10.812Z,29.00
2023-05-22T16:41:42.658Z,29.10
2023-05-22T16:44:14.423Z,29.10
2023-05-22T16:46:46.246Z,29.30
2023-05-22T16:49:18.015Z,29.20
2023-05-22T16:51:49.906Z,29.00
2023-05-22T16:54:22.106Z,28.90
2023-05-22T16:56:53.922Z,28.80
2023-05-22T16:59:25.890Z,28.60
2023-05-22T17:01:57.715Z,28.50
2023-05-22T17:04:29.491Z,28.30
2023-05-22T17:07:01.309Z,28.30
2023-05-22T17:09:33.249Z,28.20
2023-05-22T17:12:05.428Z,28.20
2023-05-22T17:14:37.430Z,28.20
2023-05-22T17:17:09.398Z,28.10
2023-05-22T17:19:41.477Z,28.10
2023-05-22T17:22:13.310Z,28.10
2023-05-22T17:24:45.090Z,28.20
2023-05-22T17:27:28.008Z,28.30
2023-05-22T17:30:07.840Z,28.30
2023-05-22T17:32:39.707Z,28.40
2023-05-22T17:35:11.483Z,28.40
2023-05-22T17:37:43.225Z,28.40
2023-05-22T17:40:15.093Z,28.30
2023-05-22T17:42:46.961Z,28.20
2023-05-22T17:45:18.826Z,28.10
2023-05-22T17:47:50.737Z,28.00
2023-05-22T17:50:22.536Z,27.80
2023-05-22T17:52:54.265Z,27.60
2023-05-22T17:55:26.044Z,27.50
2023-05-22T17:57:59.507Z,27.30
2023-05-22T18:00:31.241Z,27.10
2023-05-22T18:03:03.032Z,26.90
2023-05-22T18:05:35.880Z,26.80
2023-05-22T18:08:07.645Z,26.70
2023-05-22T18:10:39.667Z,26.50
2023-05-22T18:13:11.621Z,26.40
2023-05-22T18:15:43.379Z,26.30
2023-05-22T18:18:16.295Z,26.20
2023-05-22T18:20:48.156Z,26.00
2023-05-22T18:23:20.611Z,25.90
2023-05-22T18:25:52.418Z,25.70
2023-05-22T18:28:27.344Z,25.60
2023-05-22T18:30:59.218Z,25.40
2023-05-22T18:33:31.428Z,25.30
2023-05-22T18:36:04.256Z,25.20
2023-05-22T18:38:36.256Z,25.00
2023-05-22T18:41:08.089Z,24.80
2023-05-22T18:43:40.605Z,24.60
2023-05-22T18:46:12.601Z,24.40
2023-05-22T18:48:44.350Z,24.30
2023-05-22T18:51:16.629Z,24.20
2023-05-22T18:53:48.404Z,24.00
2023-05-22T18:56:20.464Z,23.90
2023-05-22T18:58:52.225Z,23.80
2023-05-22T19:01:24.107Z,23.70
2023-05-22T19:03:55.852Z,23.60
2023-05-22T19:06:28.965Z,23.50
2023-05-22T19:09:00.857Z,22.70
2023-05-22T19:11:32.626Z,23.20
2023-05-22T19:14:04.764Z,23.10
2023-05-22T19:16:36.571Z,23.00
2023-05-22T19:19:11.298Z,22.80
2023-05-22T19:21:43.128Z,22.70
2023-05-22T19:24:14.872Z,22.50
2023-05-22T19:26:46.685Z,22.40
2023-05-22T19:29:18.571Z,22.30
2023-05-22T19:31:50.472Z,22.20
2023-05-22T19:34:22.222Z,22.20
2023-05-22T19:36:57.570Z,22.00
2023-05-22T19:39:29.366Z,21.90
2023-05-22T19:42:01.295Z,21.80
2023-05-22T19:44:33.066Z,21.80
2023-05-22T19:47:05.066Z,21.60
2023-05-22T19:49:37.310Z,21.60
2023-05-22T19:52:09.240Z,21.50
2023-05-22T19:54:41.061Z,21.40
2023-05-22T19:57:12.809Z,21.40
2023-05-22T19:59:44.609Z,21.30
2023-05-22T20:02:16.816Z,21.20
2023-05-22T20:04:48.729Z,21.20
2023-05-22T20:07:20.864Z,21.10
2023-05-22T20:09:52.600Z,21.00
2023-05-22T20:12:24.364Z,20.90
2023-05-22T20:14:58.250Z,20.80
2023-05-22T20:17:30.552Z,20.80
2023-05-22T20:20:02.440Z,20.70
2023-05-22T20:22:34.183Z,20.60
2023-05-22T20:25:07.079Z,20.50
2023-05-22T20:27:38.965Z,20.50
2023-05-22T20:30:12.488Z,20.40
2023-05-22T20:32:46.388Z,20.30
2023-05-22T20:35:22.058Z,20.20
2023-05-22T20:37:53.899Z,20.20
2023-05-22T20:40:26.508Z,20.10
2023-05-22T20:42:58.740Z,20.00
2023-05-22T20:45:30.688Z,20.00
2023-05-22T20:48:02.606Z,19.80
2023-05-22T20:50:36.130Z,19.70
2023-05-22T20:53:09.339Z,19.60
2023-05-22T20:55:41.517Z,19.50
2023-05-22T20:58:14.746Z,19.50
2023-05-22T21:00:49.305Z,19.50
2023-05-22T21:03:21.744Z,19.50
2023-05-22T21:05:54.952Z,19.50
2023-05-22T21:08:26.714Z,19.30
2023-05-22T21:10:58.479Z,19.20
2023-05-22T21:13:30.328Z,19.20
2023-05-22T21:16:02.099Z,19.20
2023-05-22T21:18:33.850Z,19.10
2023-05-22T21:21:05.711Z,19.00
2023-05-22T21:23:37.460Z,18.90
2023-05-22T21:26:09.407Z,18.80
2023-05-22T21:28:42.750Z,18.80
2023-05-22T21:31:14.527Z,18.60
2023-05-22T21:33:46.319Z,18.60
2023-05-22T21:36:18.086Z,18.60
2023-05-22T21:38:49.887Z,18.60
2023-05-22T21:41:21.634Z,18.60
2023-05-22T21:43:53.510Z,18.50
2023-05-22T21:46:25.367Z,18.40
2023-05-22T21:48:57.276Z,18.30
2023-05-22T21:51:29.275Z,18.30
2023-05-22T21:54:01.385Z,18.30
2023-05-22T21:56:33.139Z,18.20
2023-05-22T21:59:04.919Z,18.20
2023-05-22T22:01:36.832Z,18.10
2023-05-22T22:04:08.723Z,18.10
2023-05-22T22:06:40.765Z,18.00
2023-05-22T22:09:12.770Z,18.00
2023-05-22T22:11:44.510Z,18.00
2023-05-22T22:14:16.258Z,17.90
2023-05-22T22:16:48.305Z,17.80
2023-05-22T22:19:22.659Z,17.80
2023-05-22T22:21:54.570Z,17.70
2023-05-22T22:24:26.713Z,17.60
2023-05-22T22:26:58.601Z,17.60
2023-05-22T22:29:30.461Z,17.50
2023-05-22T22:32:02.236Z,17.40
2023-05-22T22:34:33.960Z,17.40
2023-05-22T22:37:06.901Z,17.40
2023-05-22T22:39:38.616Z,17.40
2023-05-22T22:42:10.440Z,17.30
2023-05-22T22:44:43.073Z,17.40
2023-05-22T22:47:14.871Z,17.40
2023-05-22T22:49:46.592Z,17.30
2023-05-22T22:52:18.475Z,17.20
2023-05-22T22:54:50.339Z,17.20
2023-05-22T22:57:22.199Z,17.10
2023-05-22T22:59:53.951Z,17.00
2023-05-22T23:02:25.712Z,16.90
2023-05-22T23:04:57.624Z,16.90
2023-05-22T23:07:29.456Z,17.00
2023-05-22T23:10:01.202Z,17.00
2023-05-22T23:12:35.217Z,17.00
2023-05-22T23:15:09.169Z,17.00
2023-05-22T23:17:41.521Z,17.00
2023-05-22T23:20:13.395Z,16.90
2023-05-22T23:22:45.273Z,16.90
2023-05-22T23:25:17.106Z,16.90
2023-05-22T23:27:48.854Z,16.80
2023-05-22T23:30:20.693Z,16.70
2023-05-22T23:32:52.463Z,16.70
2023-05-22T23:35:24.663Z,16.60
2023-05-22T23:37:56.403Z,16.60
2023-05-22T23:40:28.175Z,16.50
2023-05-22T23:42:59.947Z,16.50
2023-05-22T23:45:31.701Z,16.40
2023-05-22T23:48:04.133Z,16.40
2023-05-22T23:50:36.156Z,16.50
2023-05-22T23:53:08.043Z,16.40
2023-05-22T23:55:40.239Z,16.40
2023-05-22T23:58:12.179Z,16.40
